Time;durP1;ratioP1;P1;durP2;ratioP2;P2;SDS_P1;SDS_P2;PMS_P1;PMS_P2;Temp;Humidity;BMP_temperature;BMP_pressure;BME280_temperature;BME280_humidity;BME280_pressure;Samples;Min_cycle;Max_cycle;Signal;HPM_P1;HPM_P2
2023/08/01 00:00:07;;;;;;;7.35;3.25;;;25.60;96.70;;;;;;5064528;28;20060;-74
2023/08/01 00:02:38;;;;;;;5.38;2.72;;;25.50;96.70;;;;;;5064349;28;20914;-73
2023/08/01 00:05:07;;;;;;;5.80;2.90;;;25.20;96.70;;;;;;5062148;28;20053;-75
2023/08/01 00:07:36;;;;;;;4.78;2.90;;;25.10;96.70;;;;;;5055920;28;20040;-73
2023/08/01 00:10:06;;;;;;;3.95;2.75;;;25.00;96.70;;;;;;5062403;28;20083;-73
2023/08/01 00:12:34;;;;;;;4.90;2.50;;;25.00;96.70;;;;;;5048564;28;20032;-73
2023/08/01 00:15:02;;;;;;;7.53;3.05;;;24.90;96.70;;;;;;5062586;28;20048;-74
2023/08/01 00:17:30;;;;;;;4.45;2.30;;;24.90;96.70;;;;;;5064033;28;20068;-74
2023/08/01 00:19:58;;;;;;;6.15;3.10;;;24.90;96.70;;;;;;5063253;28;20049;-74
2023/08/01 00:22:26;;;;;;;5.97;2.90;;;25.10;96.70;;;;;;5062184;28;20052;-74
2023/08/01 00:24:56;;;;;;;6.40;2.58;;;25.30;96.70;;;;;;5062448;28;20482;-74
2023/08/01 00:27:24;;;;;;;5.07;3.55;;;25.50;96.70;;;;;;5046519;28;20040;-73
2023/08/01 00:29:52;;;;;;;6.68;2.75;;;25.40;96.70;;;;;;5062233;28;20072;-73
2023/08/01 00:32:21;;;;;;;7.88;2.88;;;25.30;96.70;;;;;;5061953;28;20068;-73
2023/08/01 00:34:51;;;;;;;9.23;3.60;;;25.40;96.70;;;;;;5061843;28;21389;-73
2023/08/01 00:37:19;;;;;;;7.65;3.28;;;25.30;96.70;;;;;;5045159;28;20565;-72
2023/08/01 00:39:47;;;;;;;7.10;3.00;;;25.30;96.70;;;;;;5062121;28;20032;-73
2023/08/01 00:42:17;;;;;;;8.15;3.42;;;25.30;96.70;;;;;;5045276;28;20051;-73
2023/08/01 00:44:47;;;;;;;7.65;2.97;;;25.40;96.70;;;;;;5061726;28;20439;-73
2023/08/01 00:47:16;;;;;;;6.63;2.97;;;25.30;96.70;;;;;;5061542;28;20053;-73
2023/08/01 00:49:44;;;;;;;7.85;3.20;;;25.30;96.70;;;;;;5045590;28;20047;-73
2023/08/01 00:52:12;;;;;;;7.57;3.67;;;25.20;96.70;;;;;;5063133;28;20147;-73
2023/08/01 00:54:40;;;;;;;7.65;3.00;;;25.20;96.70;;;;;;5041817;28;20043;-75
2023/08/01 00:57:09;;;;;;;8.93;4.25;;;25.20;96.70;;;;;;5059394;28;20261;-73
2023/08/01 00:59:40;;;;;;;6.57;3.03;;;25.30;96.70;;;;;;5061475;28;20055;-73
2023/08/01 01:02:08;;;;;;;8.48;2.90;;;25.30;96.70;;;;;;5045578;28;20062;-73
2023/08/01 01:04:37;;;;;;;8.73;3.08;;;25.10;96.70;;;;;;5063185;28;20125;-73
2023/08/01 01:07:07;;;;;;;8.40;3.53;;;25.20;96.70;;;;;;5062772;28;20126;-72
2023/08/01 01:09:35;;;;;;;7.95;3.40;;;25.20;96.70;;;;;;5061457;28;20498;-72
2023/08/01 01:12:04;;;;;;;8.85;3.42;;;25.00;96.70;;;;;;5049426;28;20090;-72
2023/08/01 01:14:32;;;;;;;6.97;3.00;;;24.80;96.70;;;;;;5062446;28;20242;-72
2023/08/01 01:17:02;;;;;;;6.22;3.35;;;24.80;96.70;;;;;;5061641;28;20126;-72
2023/08/01 01:19:30;;;;;;;12.02;4.32;;;24.70;96.70;;;;;;5061329;28;20598;-73
2023/08/01 01:22:25;;;;;;;7.22;3.60;;;24.60;96.70;;;;;;5063251;28;20051;-74
2023/08/01 01:24:55;;;;;;;9.60;4.07;;;24.60;96.70;;;;;;5062255;28;20052;-73
2023/08/01 01:27:23;;;;;;;8.88;3.53;;;24.70;96.70;;;;;;5061549;28;20569;-72
2023/08/01 01:29:52;;;;;;;8.68;3.45;;;24.80;96.70;;;;;;5062374;28;20528;-71
2023/08/01 01:32:42;;;;;;;4.90;2.97;;;24.80;96.70;;;;;;5062223;28;20040;-70
2023/08/01 01:35:12;;;;;;;7.45;3.47;;;24.80;96.70;;;;;;5061820;28;20482;-70
2023/08/01 01:37:42;;;;;;;8.25;3.15;;;24.80;96.70;;;;;;5061696;28;20059;-70
2023/08/01 01:40:10;;;;;;;7.15;3.20;;;24.80;96.70;;;;;;5061611;28;20056;-70
2023/08/01 01:42:38;;;;;;;6.43;3.05;;;24.70;96.70;;;;;;5061629;28;20487;-70
2023/08/01 01:45:07;;;;;;;8.77;3.75;;;24.70;96.70;;;;;;5060872;28;20036;-71
2023/08/01 01:47:35;;;;;;;5.38;3.20;;;24.70;96.70;;;;;;5061877;28;20084;-70
2023/08/01 01:50:05;;;;;;;6.10;2.97;;;24.70;96.70;;;;;;5067195;28;20033;-71
2023/08/01 01:52:33;;;;;;;5.45;3.15;;;24.70;96.70;;;;;;5061587;28;20913;-69
2023/08/01 01:55:03;;;;;;;5.18;2.60;;;24.90;96.70;;;;;;5061506;28;20130;-70
2023/08/01 01:57:32;;;;;;;6.45;2.90;;;24.90;96.70;;;;;;5060832;28;20517;-70
2023/08/01 02:00:00;;;;;;;5.05;3.00;;;25.00;96.70;;;;;;5061799;28;20370;-70
2023/08/01 02:02:39;;;;;;;4.80;2.80;;;25.00;96.70;;;;;;5062824;28;20124;-70
2023/08/01 02:05:07;;;;;;;6.40;2.67;;;25.00;96.70;;;;;;5061087;28;20056;-70
2023/08/01 02:07:36;;;;;;;5.03;2.92;;;25.10;96.70;;;;;;5060928;28;20075;-70
2023/08/01 02:10:06;;;;;;;7.53;3.20;;;25.20;96.70;;;;;;5062970;28;20496;-70
2023/08/01 02:12:35;;;;;;;3.65;2.28;;;25.20;96.70;;;;;;5060897;28;20045;-71
2023/08/01 02:15:05;;;;;;;4.95;2.70;;;25.20;96.70;;;;;;5061589;28;20159;-70
2023/08/01 02:17:33;;;;;;;4.55;2.72;;;25.30;96.70;;;;;;5062671;28;20048;-70
2023/08/01 02:20:02;;;;;;;7.07;3.30;;;25.30;96.70;;;;;;5060731;28;20043;-70
2023/08/01 02:22:31;;;;;;;4.68;3.00;;;25.30;96.70;;;;;;5061820;28;20163;-71
2023/08/01 02:25:07;;;;;;;5.07;2.85;;;25.30;96.70;;;;;;5061447;28;20056;-70
2023/08/01 02:27:36;;;;;;;4.10;2.65;;;25.30;96.70;;;;;;5061537;28;20036;-70
2023/08/01 02:30:07;;;;;;;5.90;2.95;;;25.20;96.70;;;;;;5066807;28;20115;-70
2023/08/01 02:32:36;;;;;;;5.68;3.08;;;25.20;96.70;;;;;;5065421;28;20052;-70
2023/08/01 02:35:06;;;;;;;5.65;2.80;;;25.20;96.70;;;;;;5066116;28;20040;-70
2023/08/01 02:37:35;;;;;;;5.93;3.05;;;25.30;96.70;;;;;;5064440;28;20060;-70
2023/08/01 02:40:08;;;;;;;4.82;2.70;;;25.30;96.70;;;;;;5048293;28;20079;-70
2023/08/01 02:42:37;;;;;;;5.57;3.20;;;25.30;96.70;;;;;;5064554;28;20044;-71
2023/08/01 02:45:07;;;;;;;5.72;2.70;;;25.20;96.70;;;;;;5064070;28;20090;-71
2023/08/01 02:47:36;;;;;;;4.32;2.72;;;25.20;96.70;;;;;;5062236;28;20040;-70
2023/08/01 02:50:06;;;;;;;5.55;3.17;;;25.20;96.70;;;;;;5064046;28;20060;-70
2023/08/01 02:52:35;;;;;;;5.05;3.17;;;25.10;96.70;;;;;;5065947;28;20097;-70
2023/08/01 02:55:04;;;;;;;5.25;3.13;;;25.00;96.70;;;;;;5065886;28;20428;-71
2023/08/01 02:57:35;;;;;;;5.20;3.03;;;25.00;96.70;;;;;;5065265;28;20053;-70
2023/08/01 03:00:06;;;;;;;5.93;3.42;;;25.00;96.70;;;;;;5047917;28;20044;-71
2023/08/01 03:02:35;;;;;;;7.68;3.30;;;25.00;96.70;;;;;;5080694;28;20123;-70
2023/08/01 03:05:05;;;;;;;5.38;3.35;;;24.90;96.70;;;;;;5063947;28;20044;-70
2023/08/01 03:07:34;;;;;;;7.25;3.05;;;25.00;96.70;;;;;;5065271;28;20102;-70
2023/08/01 03:10:04;;;;;;;6.88;3.45;;;25.00;96.70;;;;;;5047309;28;20068;-70
2023/08/01 03:12:34;;;;;;;7.63;3.70;;;25.10;96.70;;;;;;5066912;28;20072;-70
2023/08/01 03:15:04;;;;;;;6.82;3.78;;;25.00;96.70;;;;;;5064962;28;20536;-70
2023/08/01 03:17:33;;;;;;;6.35;3.45;;;25.00;96.70;;;;;;5063413;28;20068;-70
2023/08/01 03:20:03;;;;;;;4.57;2.92;;;24.90;96.70;;;;;;5062320;28;20067;-70
2023/08/01 03:22:39;;;;;;;9.70;3.47;;;24.90;96.70;;;;;;5064591;28;20045;-70
2023/08/01 03:25:08;;;;;;;6.85;3.35;;;24.90;96.70;;;;;;5047167;28;20055;-70
2023/08/01 03:27:39;;;;;;;8.30;3.92;;;24.80;96.70;;;;;;5063013;28;20491;-70
2023/08/01 03:30:08;;;;;;;6.97;3.55;;;24.80;96.70;;;;;;5064952;28;20048;-69
2023/08/01 03:32:37;;;;;;;9.20;3.78;;;24.80;96.70;;;;;;5065254;28;20048;-70
2023/08/01 03:35:07;;;;;;;8.02;3.22;;;24.90;96.70;;;;;;5064431;28;20043;-71
2023/08/01 03:37:36;;;;;;;6.03;3.15;;;24.90;96.70;;;;;;5064156;28;20041;-70
2023/08/01 03:40:10;;;;;;;7.88;3.50;;;25.00;96.70;;;;;;5064070;28;20033;-71
2023/08/01 03:42:41;;;;;;;6.22;3.53;;;24.90;96.70;;;;;;5066256;28;20040;-69
2023/08/01 03:45:10;;;;;;;7.70;3.83;;;24.90;96.70;;;;;;5073167;28;20044;-71
2023/08/01 03:47:39;;;;;;;6.95;3.70;;;24.80;96.70;;;;;;5062025;28;20032;-70
2023/08/01 03:50:09;;;;;;;8.50;3.60;;;24.80;96.70;;;;;;5064601;28;20084;-70
2023/08/01 03:52:38;;;;;;;6.93;4.00;;;24.70;96.70;;;;;;5063895;28;20063;-70
2023/08/01 03:55:09;;;;;;;8.43;3.90;;;24.70;96.70;;;;;;5064738;28;20045;-70
2023/08/01 03:57:40;;;;;;;7.32;3.70;;;24.70;96.70;;;;;;5062726;28;20061;-70
2023/08/01 04:00:23;;;;;;;7.13;3.70;;;24.60;96.70;;;;;;5007002;28;20053;-70
2023/08/01 04:02:52;;;;;;;7.72;3.90;;;24.60;96.70;;;;;;5004735;28;20045;-70
2023/08/01 04:05:21;;;;;;;7.18;3.70;;;24.60;96.70;;;;;;5020494;28;20208;-70
2023/08/01 04:07:50;;;;;;;7.43;2.83;;;24.60;96.70;;;;;;5003961;28;20037;-70
2023/08/01 04:10:19;;;;;;;6.80;3.60;;;24.60;96.70;;;;;;5021348;28;20167;-71
2023/08/01 04:12:50;;;;;;;7.72;3.70;;;24.60;96.70;;;;;;5021401;28;20088;-70
2023/08/01 04:15:20;;;;;;;9.98;3.38;;;24.60;96.70;;;;;;5004950;28;20072;-69
2023/08/01 04:17:49;;;;;;;6.55;3.25;;;24.50;96.70;;;;;;5021303;28;20598;-70
2023/08/01 04:20:18;;;;;;;6.32;3.10;;;24.60;96.70;;;;;;5003477;28;20240;-70
2023/08/01 04:22:46;;;;;;;6.50;3.55;;;24.50;96.70;;;;;;5004642;28;20033;-71
2023/08/01 04:25:15;;;;;;;6.10;3.67;;;24.50;96.70;;;;;;5003191;28;20052;-71
2023/08/01 04:27:43;;;;;;;8.48;3.75;;;24.50;96.70;;;;;;5002459;28;20041;-70
2023/08/01 04:30:13;;;;;;;7.47;3.42;;;24.50;96.70;;;;;;5007655;28;20537;-71
2023/08/01 04:32:41;;;;;;;9.15;4.25;;;24.60;96.70;;;;;;5046136;28;20052;-70
2023/08/01 04:35:09;;;;;;;8.85;3.95;;;24.60;96.70;;;;;;5061835;28;20037;-70
2023/08/01 04:37:37;;;;;;;9.52;3.75;;;24.60;96.70;;;;;;5044190;28;20064;-70
2023/08/01 04:40:07;;;;;;;11.80;4.18;;;24.60;96.70;;;;;;5061706;28;20486;-70
2023/08/01 04:42:35;;;;;;;7.10;4.10;;;24.60;96.70;;;;;;5061788;28;20040;-70
2023/08/01 04:45:06;;;;;;;7.25;3.72;;;24.60;96.70;;;;;;5062234;28;20064;-71
2023/08/01 04:47:36;;;;;;;7.15;3.22;;;24.40;96.70;;;;;;5061285;28;20048;-70
2023/08/01 04:50:05;;;;;;;8.23;3.40;;;24.50;96.70;;;;;;5060925;28;20133;-70
2023/08/01 04:52:34;;;;;;;8.20;3.25;;;24.50;96.70;;;;;;5061242;28;20143;-70
2023/08/01 04:55:03;;;;;;;7.50;3.25;;;24.60;96.70;;;;;;5063270;28;20040;-71
2023/08/01 04:57:31;;;;;;;8.02;3.60;;;24.60;96.70;;;;;;5062271;28;20056;-70
2023/08/01 04:59:59;;;;;;;7.65;3.60;;;24.60;96.70;;;;;;5062424;28;20060;-70
2023/08/01 05:02:27;;;;;;;7.50;3.60;;;24.60;96.70;;;;;;5062138;28;20422;-71
2023/08/01 05:04:57;;;;;;;7.47;3.47;;;24.60;96.70;;;;;;5063065;28;20048;-72
2023/08/01 05:07:25;;;;;;;6.47;3.25;;;24.60;96.70;;;;;;5061586;28;20068;-71
2023/08/01 05:09:53;;;;;;;6.63;3.35;;;24.60;96.70;;;;;;5063068;28;20068;-71
2023/08/01 05:12:21;;;;;;;9.93;3.95;;;24.60;96.70;;;;;;5063142;28;20071;-70
2023/08/01 05:14:50;;;;;;;7.70;3.75;;;24.50;96.70;;;;;;5078174;28;20041;-71
2023/08/01 05:17:18;;;;;;;7.00;3.67;;;24.50;96.70;;;;;;5062404;28;20045;-71
2023/08/01 05:19:47;;;;;;;8.45;3.15;;;24.60;96.70;;;;;;5063765;28;20621;-71
2023/08/01 05:22:17;;;;;;;5.70;3.22;;;24.60;96.70;;;;;;5061972;28;20470;-70
2023/08/01 05:24:45;;;;;;;9.20;3.65;;;24.70;96.70;;;;;;5063043;28;20055;-71
2023/08/01 05:27:13;;;;;;;6.82;4.15;;;24.70;96.70;;;;;;5062411;28;20036;-70
2023/08/01 05:29:42;;;;;;;6.13;3.63;;;24.70;96.70;;;;;;5062224;28;20072;-70
2023/08/01 05:32:11;;;;;;;5.47;3.45;;;24.70;96.70;;;;;;5068339;28;20098;-71
2023/08/01 05:34:40;;;;;;;8.77;3.63;;;24.80;96.70;;;;;;5062669;28;20067;-70
2023/08/01 05:37:08;;;;;;;5.65;3.55;;;24.90;96.70;;;;;;5062038;28;20047;-71
2023/08/01 05:39:38;;;;;;;7.72;3.58;;;24.90;96.70;;;;;;5061810;28;20434;-71
2023/08/01 05:42:08;;;;;;;8.30;3.95;;;25.00;96.70;;;;;;5061510;28;20047;-71
2023/08/01 05:44:36;;;;;;;5.53;3.15;;;25.00;96.70;;;;;;5063001;28;20051;-70
2023/08/01 05:47:05;;;;;;;6.38;3.42;;;25.00;96.70;;;;;;5062968;28;20043;-70
2023/08/01 05:49:34;;;;;;;6.00;3.22;;;25.10;96.70;;;;;;5061599;28;20655;-70
2023/08/01 05:52:02;;;;;;;10.50;3.92;;;25.10;96.70;;;;;;5061575;28;20057;-70
2023/08/01 05:54:30;;;;;;;10.18;3.55;;;25.20;96.70;;;;;;5062465;28;20119;-71
2023/08/01 05:57:01;;;;;;;7.03;4.32;;;25.20;96.70;;;;;;5063102;28;20053;-70
2023/08/01 05:59:29;;;;;;;6.78;3.55;;;25.30;96.70;;;;;;5062379;28;20559;-70
2023/08/01 06:01:57;;;;;;;8.63;4.20;;;25.30;96.70;;;;;;5062628;28;20062;-70
2023/08/01 06:04:27;;;;;;;9.57;4.10;;;25.30;96.70;;;;;;5048684;28;20055;-70
2023/08/01 06:06:56;;;;;;;9.77;3.83;;;25.30;96.70;;;;;;5063615;28;20041;-70
2023/08/01 06:09:24;;;;;;;10.38;4.63;;;25.40;96.70;;;;;;5066542;28;20040;-72
2023/08/01 06:11:52;;;;;;;11.82;4.75;;;25.50;96.70;;;;;;5065362;28;20049;-70
2023/08/01 06:14:23;;;;;;;16.77;5.70;;;25.60;96.70;;;;;;5066152;28;20586;-70
2023/08/01 06:16:51;;;;;;;16.60;5.50;;;25.70;96.70;;;;;;5066976;28;20452;-70
2023/08/01 06:19:20;;;;;;;11.55;4.10;;;25.80;96.70;;;;;;5048402;28;20036;-70
2023/08/01 06:21:48;;;;;;;9.93;4.30;;;25.80;96.70;;;;;;5048908;28;20052;-71
2023/08/01 06:24:16;;;;;;;10.30;4.57;;;25.80;96.70;;;;;;5066750;28;20040;-71
2023/08/01 06:26:45;;;;;;;10.05;3.90;;;25.70;96.70;;;;;;5065511;28;20147;-71
2023/08/01 06:29:13;;;;;;;9.13;4.35;;;25.90;96.70;;;;;;5066238;28;20699;-71
2023/08/01 06:31:43;;;;;;;10.18;4.20;;;26.00;96.70;;;;;;5066633;28;20115;-71
2023/08/01 06:34:11;;;;;;;7.85;4.15;;;26.00;96.70;;;;;;5064057;28;20052;-72
2023/08/01 06:36:39;;;;;;;9.52;4.57;;;26.10;96.70;;;;;;5066046;28;20033;-71
2023/08/01 06:39:08;;;;;;;10.32;4.25;;;26.10;96.70;;;;;;5065558;28;20208;-71
2023/08/01 06:41:36;;;;;;;9.05;3.92;;;26.20;96.70;;;;;;5065163;28;20068;-71
2023/08/01 06:44:05;;;;;;;10.90;3.97;;;26.20;96.70;;;;;;5065488;28;20055;-72
2023/08/01 06:46:33;;;;;;;8.73;4.05;;;26.20;96.70;;;;;;5064130;28;20501;-73
2023/08/01 06:49:03;;;;;;;10.70;4.35;;;26.20;96.70;;;;;;5075001;28;20052;-72
2023/08/01 06:51:31;;;;;;;11.35;4.25;;;26.30;96.70;;;;;;5065786;28;20059;-72
2023/08/01 06:54:00;;;;;;;9.63;4.72;;;26.40;96.70;;;;;;5065896;28;20098;-72
2023/08/01 06:56:28;;;;;;;12.18;6.07;;;26.50;96.70;;;;;;5047901;28;20054;-73
2023/08/01 06:59:00;;;;;;;10.65;5.32;;;26.50;96.70;;;;;;5046784;28;20051;-72
2023/08/01 07:01:40;;;;;;;11.88;6.72;;;26.30;96.70;;;;;;5064595;28;20418;-71
2023/08/01 07:04:10;;;;;;;10.40;7.15;;;26.10;96.70;;;;;;5065617;28;20430;-72
2023/08/01 07:06:39;;;;;;;11.48;5.60;;;26.10;96.70;;;;;;5065529;28;20037;-72
2023/08/01 07:09:07;;;;;;;11.43;6.13;;;26.30;96.70;;;;;;5065439;28;20226;-72
2023/08/01 07:11:36;;;;;;;15.13;6.78;;;26.50;96.70;;;;;;5077382;28;20357;-73
2023/08/01 07:14:04;;;;;;;10.95;6.10;;;26.60;96.70;;;;;;5046608;28;20048;-71
2023/08/01 07:16:33;;;;;;;14.95;6.03;;;26.70;96.70;;;;;;5065441;28;20056;-72
2023/08/01 07:19:01;;;;;;;15.65;6.28;;;26.60;96.70;;;;;;5064937;28;20131;-73
2023/08/01 07:21:31;;;;;;;10.75;4.85;;;26.70;96.70;;;;;;5065652;28;20046;-73
2023/08/01 07:24:00;;;;;;;11.13;4.82;;;26.80;96.70;;;;;;5063224;28;20040;-73
2023/08/01 07:26:29;;;;;;;9.57;4.32;;;26.80;96.70;;;;;;5060431;28;20036;-71
2023/08/01 07:28:58;;;;;;;12.77;4.65;;;26.80;96.70;;;;;;5064969;28;20564;-72
2023/08/01 07:31:26;;;;;;;12.05;4.95;;;27.00;96.70;;;;;;5068878;28;20116;-72
2023/08/01 07:33:55;;;;;;;7.70;4.03;;;27.20;96.70;;;;;;5064036;28;20055;-72
2023/08/01 07:36:23;;;;;;;9.57;4.18;;;27.30;96.70;;;;;;5047813;28;20114;-71
2023/08/01 07:38:56;;;;;;;7.07;3.53;;;27.30;96.70;;;;;;5062785;28;20064;-73
2023/08/01 07:41:26;;;;;;;8.43;3.30;;;27.20;96.70;;;;;;5065504;28;20509;-74
2023/08/01 07:43:55;;;;;;;7.97;3.42;;;27.10;96.70;;;;;;5063463;28;20083;-73
2023/08/01 07:46:23;;;;;;;8.82;3.58;;;27.00;96.70;;;;;;5063448;28;20044;-74
2023/08/01 07:48:53;;;;;;;7.00;3.42;;;26.90;96.70;;;;;;5064299;28;20049;-73
2023/08/01 07:51:22;;;;;;;9.70;3.85;;;26.90;96.70;;;;;;5063151;28;20066;-74
2023/08/01 07:53:55;;;;;;;7.55;3.30;;;27.00;96.70;;;;;;5062469;28;20144;-73
2023/08/01 07:56:24;;;;;;;6.18;3.17;;;27.10;96.70;;;;;;5080478;28;20527;-75
2023/08/01 07:58:52;;;;;;;7.75;3.45;;;27.10;96.70;;;;;;5063216;28;20143;-74
2023/08/01 08:01:20;;;;;;;7.07;3.20;;;27.10;96.70;;;;;;5065249;28;20044;-75
2023/08/01 08:03:49;;;;;;;8.52;3.47;;;27.20;96.70;;;;;;5063033;28;20071;-74
2023/08/01 08:06:17;;;;;;;6.95;3.63;;;27.30;96.70;;;;;;5064280;28;20064;-74
2023/08/01 08:08:45;;;;;;;9.05;3.55;;;27.40;96.70;;;;;;5062852;28;20041;-74
2023/08/01 08:11:20;;;;;;;9.45;3.80;;;27.50;96.70;;;;;;5079890;28;20048;-74
2023/08/01 08:13:48;;;;;;;7.00;3.13;;;27.50;96.70;;;;;;5064409;28;20051;-74
2023/08/01 08:16:16;;;;;;;8.00;3.42;;;27.50;96.70;;;;;;5064273;28;20196;-75
2023/08/01 08:18:45;;;;;;;9.98;3.35;;;27.50;96.70;;;;;;5046451;28;20048;-74
2023/08/01 08:21:13;;;;;;;7.63;2.80;;;27.60;96.70;;;;;;5063298;28;20067;-75
2023/08/01 08:23:41;;;;;;;6.00;3.13;;;27.60;96.70;;;;;;5064325;28;20040;-75
2023/08/01 08:26:09;;;;;;;8.98;3.75;;;27.60;96.70;;;;;;5065255;28;20040;-74
2023/08/01 08:28:40;;;;;;;6.90;3.40;;;27.50;96.70;;;;;;5045451;28;20080;-74
2023/08/01 08:31:08;;;;;;;7.25;3.38;;;27.50;96.70;;;;;;5062141;28;20071;-74
2023/08/01 08:33:36;;;;;;;8.63;3.65;;;27.50;96.70;;;;;;5046033;28;20121;-74
2023/08/01 08:36:05;;;;;;;6.03;3.35;;;27.60;96.70;;;;;;5062553;28;20072;-75
2023/08/01 08:38:33;;;;;;;11.77;3.80;;;27.60;96.70;;;;;;5063357;28;20098;-75
2023/08/01 08:41:08;;;;;;;7.50;3.60;;;27.50;96.70;;;;;;5044219;28;20048;-74
2023/08/01 08:43:39;;;;;;;5.75;3.38;;;27.60;96.70;;;;;;5060103;28;20049;-75
2023/08/01 08:46:09;;;;;;;9.02;3.20;;;27.80;96.70;;;;;;5046232;28;20044;-74
2023/08/01 08:48:39;;;;;;;6.82;3.33;;;27.90;96.70;;;;;;5062220;28;20056;-74
2023/08/01 08:51:09;;;;;;;8.13;3.47;;;27.80;96.70;;;;;;5078420;28;20071;-74
2023/08/01 08:53:42;;;;;;;9.32;4.65;;;27.70;96.70;;;;;;5059744;28;20053;-74
2023/08/01 08:56:11;;;;;;;6.30;3.15;;;27.70;96.70;;;;;;5063966;28;20047;-74
2023/08/01 08:58:41;;;;;;;9.68;4.22;;;27.90;96.70;;;;;;5062453;28;20036;-74
2023/08/01 09:01:10;;;;;;;6.10;3.45;;;28.00;96.70;;;;;;5062213;28;20048;-74
2023/08/01 09:03:38;;;;;;;7.93;3.35;;;28.10;96.70;;;;;;5061996;28;20036;-74
2023/08/01 09:06:10;;;;;;;10.40;3.63;;;28.20;96.70;;;;;;5061298;28;20044;-74
2023/08/01 09:08:44;;;;;;;11.70;3.65;;;28.20;96.70;;;;;;5060957;28;20060;-74
2023/08/01 09:11:12;;;;;;;6.43;3.38;;;28.30;96.70;;;;;;5062993;28;20054;-74
2023/08/01 09:13:42;;;;;;;8.60;3.42;;;28.40;96.70;;;;;;5062116;28;20114;-74
2023/08/01 09:16:11;;;;;;;7.60;3.08;;;28.40;96.70;;;;;;5063854;28;20425;-74
2023/08/01 09:18:48;;;;;;;5.82;3.20;;;28.40;96.70;;;;;;5062660;28;20040;-73
2023/08/01 09:21:18;;;;;;;6.90;3.30;;;28.30;96.70;;;;;;5059848;28;20044;-74
2023/08/01 09:23:47;;;;;;;6.03;3.22;;;28.30;96.70;;;;;;5044601;28;20048;-74
2023/08/01 09:26:15;;;;;;;5.57;3.17;;;28.40;96.70;;;;;;5063976;28;20044;-75
2023/08/01 09:28:55;;;;;;;8.93;4.10;;;28.60;96.70;;;;;;5060147;28;20515;-75
2023/08/01 09:31:27;;;;;;;6.93;3.47;;;28.70;96.70;;;;;;5064657;28;20105;-74
2023/08/01 09:33:58;;;;;;;6.93;3.63;;;28.70;96.70;;;;;;5063429;28;20106;-75
2023/08/01 09:36:27;;;;;;;7.90;3.42;;;28.80;96.70;;;;;;5045845;28;20151;-75
2023/08/01 09:38:59;;;;;;;5.80;3.20;;;28.80;96.70;;;;;;5066775;28;20048;-74
2023/08/01 09:41:29;;;;;;;7.35;3.63;;;28.80;96.70;;;;;;5058428;28;20057;-74
2023/08/01 09:43:58;;;;;;;8.32;3.67;;;28.60;96.70;;;;;;5067041;28;20142;-75
2023/08/01 09:46:27;;;;;;;5.18;3.15;;;28.50;96.70;;;;;;5067884;28;20066;-74
2023/08/01 09:48:55;;;;;;;10.02;3.72;;;28.60;96.70;;;;;;5067194;28;20121;-75
2023/08/01 09:51:24;;;;;;;5.82;3.33;;;28.90;96.70;;;;;;5067177;28;20476;-75
2023/08/01 09:53:53;;;;;;;7.93;3.13;;;29.00;96.70;;;;;;5065594;28;20042;-74
2023/08/01 09:56:23;;;;;;;9.13;3.75;;;29.00;96.70;;;;;;5065873;28;20044;-74
2023/08/01 09:58:53;;;;;;;8.43;4.18;;;29.00;96.70;;;;;;5048659;28;20044;-73
2023/08/01 10:01:24;;;;;;;7.20;3.63;;;29.00;96.70;;;;;;5065940;28;20047;-74
2023/08/01 10:03:53;;;;;;;6.72;3.78;;;28.90;96.70;;;;;;5067018;28;20051;-74
2023/08/01 10:06:23;;;;;;;5.40;3.50;;;29.10;96.70;;;;;;5065956;28;20028;-74
2023/08/01 10:08:52;;;;;;;6.93;3.67;;;29.20;96.70;;;;;;5066324;28;20135;-75
2023/08/01 10:11:22;;;;;;;9.07;3.40;;;29.30;96.70;;;;;;5065641;28;20082;-74
2023/08/01 10:13:50;;;;;;;6.78;3.38;;;29.20;96.70;;;;;;5065103;28;20052;-74
2023/08/01 10:16:19;;;;;;;7.00;3.42;;;29.30;96.70;;;;;;5066525;28;20040;-75
2023/08/01 10:18:49;;;;;;;8.35;3.50;;;29.40;96.70;;;;;;5064905;28;20049;-75
2023/08/01 10:21:18;;;;;;;7.53;3.60;;;29.40;96.70;;;;;;5058657;28;20048;-75
2023/08/01 10:23:47;;;;;;;7.22;2.85;;;29.50;96.70;;;;;;5065047;28;20072;-73
2023/08/01 10:26:16;;;;;;;6.13;3.60;;;29.60;96.70;;;;;;5066385;28;20047;-75
2023/08/01 10:28:51;;;;;;;8.13;3.92;;;29.50;96.70;;;;;;5064801;28;20516;-75
2023/08/01 10:31:21;;;;;;;10.07;3.70;;;29.70;96.70;;;;;;5067021;28;20067;-74
2023/08/01 10:33:52;;;;;;;7.97;3.70;;;29.90;96.70;;;;;;5064991;28;20048;-75
2023/08/01 10:36:22;;;;;;;5.38;3.30;;;30.00;96.70;;;;;;5048720;28;20091;-75
2023/08/01 10:38:53;;;;;;;7.40;3.53;;;30.20;96.70;;;;;;5064660;28;20575;-74
2023/08/01 10:41:25;;;;;;;6.55;3.60;;;30.20;96.70;;;;;;5082272;28;20044;-76
2023/08/01 10:44:08;;;;;;;5.78;3.33;;;30.10;96.70;;;;;;5065439;28;20875;-76
2023/08/01 10:46:49;;;;;;;7.93;3.58;;;30.10;96.70;;;;;;5072349;28;20542;-74
2023/08/01 10:49:21;;;;;;;8.40;3.60;;;30.00;96.70;;;;;;5063677;28;20098;-75
2023/08/01 10:51:49;;;;;;;6.22;3.38;;;29.70;96.70;;;;;;5065945;28;20052;-74
2023/08/01 10:54:22;;;;;;;5.38;3.20;;;29.80;96.70;;;;;;5055888;28;20044;-75
2023/08/01 10:56:53;;;;;;;6.40;3.72;;;29.80;96.70;;;;;;5064891;28;20449;-74
2023/08/01 10:59:22;;;;;;;9.93;3.80;;;29.90;96.70;;;;;;5047945;28;20080;-74
2023/08/01 11:01:52;;;;;;;9.00;3.53;;;29.90;96.70;;;;;;5066347;28;20048;-75
2023/08/01 11:04:23;;;;;;;9.18;4.53;;;29.90;96.70;;;;;;5044571;28;20064;-76
2023/08/01 11:06:53;;;;;;;8.93;3.25;;;29.80;96.70;;;;;;5066715;28;20053;-76
2023/08/01 11:09:22;;;;;;;8.88;3.47;;;29.90;96.70;;;;;;5047636;28;20090;-75
2023/08/01 11:11:52;;;;;;;7.70;3.55;;;30.10;96.70;;;;;;5064723;28;20052;-75
2023/08/01 11:14:22;;;;;;;6.43;3.55;;;30.20;96.70;;;;;;5063542;28;20650;-75
2023/08/01 11:16:50;;;;;;;7.30;3.53;;;30.30;96.70;;;;;;5064831;28;20183;-75
2023/08/01 11:19:22;;;;;;;5.45;3.45;;;30.30;96.70;;;;;;5080803;28;20102;-75
2023/08/01 11:21:51;;;;;;;9.43;3.67;;;30.30;96.70;;;;;;5066293;28;20829;-75
2023/08/01 11:24:20;;;;;;;7.80;3.30;;;30.20;96.70;;;;;;5063833;28;20343;-76
2023/08/01 11:26:50;;;;;;;9.45;3.40;;;30.30;96.70;;;;;;5064508;28;20044;-76
2023/08/01 11:29:20;;;;;;;7.85;3.28;;;30.30;96.70;;;;;;5063595;28;20044;-75
2023/08/01 11:31:55;;;;;;;7.30;3.63;;;30.40;96.70;;;;;;5066261;28;20048;-76
2023/08/01 11:34:27;;;;;;;7.70;3.72;;;30.40;96.70;;;;;;5065079;28;20465;-75
2023/08/01 11:36:55;;;;;;;8.05;3.40;;;30.40;96.70;;;;;;5064087;28;20044;-76
2023/08/01 11:39:23;;;;;;;9.02;3.85;;;30.20;96.70;;;;;;5063740;28;20050;-75
2023/08/01 11:41:52;;;;;;;8.50;3.83;;;30.40;96.70;;;;;;5064952;28;20040;-76
2023/08/01 11:44:24;;;;;;;7.57;3.65;;;30.40;96.70;;;;;;5063563;28;20083;-75
2023/08/01 11:46:52;;;;;;;6.75;3.65;;;30.40;96.70;;;;;;5072734;28;20098;-76
2023/08/01 11:49:20;;;;;;;9.40;3.92;;;30.60;96.70;;;;;;5065259;28;20090;-76
2023/08/01 11:51:50;;;;;;;7.45;3.35;;;30.80;96.70;;;;;;5063693;28;20418;-76
2023/08/01 11:54:18;;;;;;;7.43;3.25;;;30.90;96.70;;;;;;5064116;28;20053;-74
2023/08/01 11:56:47;;;;;;;9.82;3.40;;;30.90;96.70;;;;;;5063725;28;20048;-75
2023/08/01 11:59:16;;;;;;;6.85;3.38;;;30.90;96.70;;;;;;5063939;28;20731;-75
2023/08/01 12:01:46;;;;;;;6.72;3.85;;;31.10;96.70;;;;;;5065188;28;20756;-74
2023/08/01 12:04:24;;;;;;;7.22;3.67;;;31.10;96.70;;;;;;5063052;28;20766;-75
2023/08/01 12:06:55;;;;;;;7.60;3.35;;;31.20;96.70;;;;;;5054433;28;20557;-75
2023/08/01 12:09:23;;;;;;;6.65;3.67;;;31.10;96.70;;;;;;5062602;28;20709;-76
2023/08/01 12:12:01;;;;;;;4.63;2.75;;;31.30;96.70;;;;;;5065126;28;20048;-75
2023/08/01 12:14:30;;;;;;;9.73;3.92;;;31.60;96.70;;;;;;5062959;28;20708;-75
2023/08/01 12:16:58;;;;;;;7.65;3.72;;;31.70;96.70;;;;;;5063206;28;20041;-76
2023/08/01 12:19:26;;;;;;;8.45;3.45;;;31.80;96.70;;;;;;5046470;28;20048;-77
2023/08/01 12:21:56;;;;;;;9.02;4.00;;;31.90;96.70;;;;;;5064064;28;20091;-76
2023/08/01 12:24:24;;;;;;;8.73;3.03;;;31.90;96.70;;;;;;5063938;28;20139;-75
2023/08/01 12:26:52;;;;;;;5.80;3.22;;;32.10;96.70;;;;;;5064958;28;20040;-75
2023/08/01 12:29:20;;;;;;;7.78;3.85;;;31.80;96.70;;;;;;5063567;28;20048;-74
2023/08/01 12:31:48;;;;;;;5.13;3.20;;;31.60;96.70;;;;;;5064945;28;20392;-74
2023/08/01 12:34:17;;;;;;;7.13;3.45;;;31.50;96.70;;;;;;5062886;28;20059;-74
2023/08/01 12:36:45;;;;;;;10.15;3.60;;;31.30;96.70;;;;;;5064749;28;20044;-75
2023/08/01 12:39:14;;;;;;;7.90;2.83;;;31.50;96.70;;;;;;5062555;28;20053;-73
2023/08/01 12:41:43;;;;;;;9.43;3.38;;;31.50;96.70;;;;;;5046555;28;20033;-73
2023/08/01 12:44:12;;;;;;;5.07;3.10;;;31.40;96.70;;;;;;5063192;28;20060;-74
2023/08/01 12:46:40;;;;;;;8.57;3.30;;;31.50;96.70;;;;;;5072396;28;20111;-73
2023/08/01 12:49:09;;;;;;;10.27;3.65;;;31.50;96.70;;;;;;5067850;28;20036;-73
2023/08/01 12:51:37;;;;;;;6.50;3.70;;;31.30;96.70;;;;;;5064060;28;20059;-73
2023/08/01 12:54:05;;;;;;;10.40;3.75;;;31.10;96.70;;;;;;5051661;28;20117;-74
2023/08/01 12:56:35;;;;;;;9.10;3.60;;;30.80;96.70;;;;;;5063927;28;20048;-74